createdAt,value
2024-03-12T00:01:38.173Z,99387.59
2024-03-12T00:04:42.217Z,99387.16
2024-03-12T00:07:44.378Z,99382.63
2024-03-12T00:10:46.042Z,99382.63
2024-03-12T00:13:47.828Z,99388.63
2024-03-12T00:16:49.570Z,99392.22
2024-03-12T00:19:53.505Z,99389.59
2024-03-12T00:22:55.134Z,99398.03
2024-03-12T00:25:59.889Z,99398.94
2024-03-12T00:29:01.547Z,99402.09
2024-03-12T00:32:03.551Z,99406.00
2024-03-12T00:35:06.398Z,99407.41
2024-03-12T00:38:08.073Z,99413.47
2024-03-12T00:41:10.044Z,99410.16
2024-03-12T00:44:11.800Z,99419.72
2024-03-12T00:47:13.465Z,99414.16
2024-03-12T00:50:15.493Z,99422.09
2024-03-12T00:53:17.368Z,99419.25
2024-03-12T00:56:19.062Z,99420.22
2024-03-12T00:59:20.772Z,99415.97
2024-03-12T01:02:22.861Z,99416.75
2024-03-12T01:05:26.139Z,99419.06
2024-03-12T01:08:27.751Z,99414.50
2024-03-12T01:11:30.078Z,99405.97
2024-03-12T01:14:31.748Z,99416.75
2024-03-12T01:17:33.836Z,99411.53
2024-03-12T01:20:36.209Z,99406.91
2024-03-12T01:23:56.647Z,99411.88
2024-03-12T01:26:58.501Z,99415.47
2024-03-12T01:30:01.994Z,99411.88
2024-03-12T01:33:07.007Z,99421.25
2024-03-12T01:36:20.212Z,99415.53
2024-03-12T01:39:29.597Z,99415.63
2024-03-12T01:42:31.415Z,99416.19
2024-03-12T01:45:34.707Z,99415.75
2024-03-12T01:48:36.876Z,99428.81
2024-03-12T01:51:39.142Z,99430.44
2024-03-12T01:54:40.930Z,99431.97
2024-03-12T01:57:43.362Z,99432.59
2024-03-12T02:00:48.353Z,99443.25
2024-03-12T02:03:52.960Z,99436.56
2024-03-12T02:06:54.993Z,99438.78
2024-03-12T02:09:57.952Z,99429.22
2024-03-12T02:12:59.686Z,99441.41
2024-03-12T02:16:01.419Z,99439.00
2024-03-12T02:19:04.416Z,99439.28
2024-03-12T02:22:06.397Z,99432.38
2024-03-12T02:25:11.643Z,99431.41
2024-03-12T02:28:13.483Z,99433.75
2024-03-12T02:31:15.609Z,99436.50
2024-03-12T02:34:17.324Z,99431.31
2024-03-12T02:37:22.378Z,99433.94
2024-03-12T02:40:24.828Z,99434.25
2024-03-12T02:43:26.615Z,99441.31
2024-03-12T02:46:28.291Z,99429.03
2024-03-12T02:49:30.627Z,99439.19
2024-03-12T02:52:32.266Z,99445.88
2024-03-12T02:58:38.898Z,99442.13
2024-03-12T03:01:41.030Z,99446.09
2024-03-12T03:04:42.723Z,99443.25
2024-03-12T03:07:44.562Z,99445.72
2024-03-12T03:10:46.373Z,99453.75
2024-03-12T03:13:48.230Z,99449.38
2024-03-12T03:16:49.815Z,99453.63
2024-03-12T03:19:51.420Z,99456.91
2024-03-12T03:22:53.055Z,99459.41
2024-03-12T03:25:54.729Z,99449.72
2024-03-12T03:28:56.443Z,99455.38
2024-03-12T03:32:01.141Z,99463.16
2024-03-12T03:35:06.225Z,99467.13
2024-03-12T03:38:09.928Z,99465.19
2024-03-12T03:41:11.789Z,99456.66
2024-03-12T03:44:14.263Z,99457.16
2024-03-12T03:47:15.889Z,99461.28
2024-03-12T03:50:17.750Z,99476.50
2024-03-12T03:53:19.447Z,99472.09
2024-03-12T03:56:22.955Z,99463.25
2024-03-12T03:59:26.228Z,99470.84
2024-03-12T04:02:28.233Z,99473.31
2024-03-12T04:05:30.371Z,99466.16
2024-03-12T04:08:32.188Z,99461.16
2024-03-12T04:11:34.877Z,99470.38
2024-03-12T04:14:36.908Z,99462.63
2024-03-12T04:17:39.027Z,99472.53
2024-03-12T04:20:40.847Z,99476.69
2024-03-12T04:23:43.732Z,99472.25
2024-03-12T04:26:46.760Z,99479.44
2024-03-12T04:29:48.765Z,99477.34
2024-03-12T04:32:50.445Z,99482.59
2024-03-12T04:35:53.358Z,99486.06
2024-03-12T04:38:55.003Z,99486.91
2024-03-12T04:41:58.032Z,99483.28
2024-03-12T04:44:59.651Z,99491.34
2024-03-12T04:48:01.324Z,99491.34
2024-03-12T04:51:03.957Z,99491.47
2024-03-12T04:54:05.723Z,99489.00
2024-03-12T04:57:08.455Z,99499.06
2024-03-12T05:00:20.025Z,99500.69
2024-03-12T05:03:21.827Z,99501.56
2024-03-12T05:06:24.373Z,99524.75
2024-03-12T05:09:26.018Z,99525.50
2024-03-12T05:12:27.710Z,99529.78
2024-03-12T05:15:29.764Z,99534.88
2024-03-12T05:18:31.442Z,99529.66
2024-03-12T05:21:33.118Z,99532.38
2024-03-12T05:24:36.701Z,99538.69
2024-03-12T05:27:44.637Z,99538.59
2024-03-12T05:30:47.191Z,99547.03
2024-03-12T05:33:52.316Z,99551.44
2024-03-12T05:37:03.467Z,99557.66
2024-03-12T05:40:18.261Z,99572.59
2024-03-12T05:43:38.735Z,99564.44
2024-03-12T05:46:58.822Z,99558.19
2024-03-12T05:50:03.309Z,99561.94
2024-03-12T05:53:05.602Z,99568.53
2024-03-12T05:56:12.287Z,99577.13
2024-03-12T05:59:15.082Z,99575.44
2024-03-12T06:02:16.756Z,99576.44
2024-03-12T06:05:18.503Z,99588.59
2024-03-12T06:08:21.218Z,99585.13
2024-03-12T06:11:23.884Z,99586.78
2024-03-12T06:14:26.723Z,99591.91
2024-03-12T06:17:28.420Z,99593.44
2024-03-12T06:20:30.056Z,99591.41
2024-03-12T06:23:32.008Z,99594.13
2024-03-12T06:26:33.715Z,99606.69
2024-03-12T06:29:36.107Z,99604.09
2024-03-12T06:32:38.431Z,99614.22
2024-03-12T06:35:42.903Z,99613.00
2024-03-12T06:38:44.789Z,99611.22
2024-03-12T06:41:47.859Z,99614.22
2024-03-12T06:44:49.658Z,99611.50
2024-03-12T06:47:52.966Z,99618.53
2024-03-12T06:50:54.570Z,99609.53
2024-03-12T06:53:56.316Z,99619.25
2024-03-12T06:56:57.945Z,99619.66
2024-03-12T07:00:00.652Z,99619.13
2024-03-12T07:03:04.169Z,99627.63
2024-03-12T07:06:07.054Z,99626.84
2024-03-12T07:09:16.874Z,99637.03
2024-03-12T07:12:19.804Z,99634.22
2024-03-12T07:15:21.692Z,99632.94
2024-03-12T07:18:24.736Z,99635.78
2024-03-12T07:21:28.007Z,99648.34
2024-03-12T07:24:30.588Z,99642.34
2024-03-12T07:27:32.412Z,99652.56
2024-03-12T07:30:34.889Z,99648.50
2024-03-12T07:33:36.532Z,99646.50
2024-03-12T07:36:38.488Z,99647.44
2024-03-12T07:39:40.353Z,99649.19
2024-03-12T07:42:44.084Z,99651.00
2024-03-12T07:45:48.669Z,99651.53
2024-03-12T07:48:50.418Z,99642.34
2024-03-12T07:51:52.555Z,99649.75
2024-03-12T07:54:54.343Z,99650.63
2024-03-12T07:57:56.625Z,99660.69
2024-03-12T08:00:58.563Z,99650.91
2024-03-12T08:04:00.355Z,99663.75
2024-03-12T08:07:02.877Z,99663.84
2024-03-12T08:10:06.810Z,99669.81
2024-03-12T08:13:09.190Z,99671.34
2024-03-12T08:16:11.067Z,99674.72
2024-03-12T08:19:14.020Z,99679.13
2024-03-12T08:22:15.976Z,99682.41
2024-03-12T08:25:21.436Z,99680.78
2024-03-12T08:28:23.718Z,99691.56
2024-03-12T08:31:33.324Z,99682.69
2024-03-12T08:34:40.301Z,99684.31
2024-03-12T08:37:42.009Z,99699.72
2024-03-12T08:40:44.375Z,99699.09
2024-03-12T08:43:46.336Z,99704.38
2024-03-12T08:46:48.441Z,99697.56
2024-03-12T08:49:51.059Z,99697.63
2024-03-12T08:52:52.724Z,99701.94
2024-03-12T08:55:54.872Z,99696.19
2024-03-12T08:58:59.017Z,99711.59
2024-03-12T09:02:01.397Z,99704.72
2024-03-12T09:05:03.306Z,99708.69
2024-03-12T09:08:05.356Z,99718.22
2024-03-12T09:11:07.231Z,99720.72
2024-03-12T09:14:09.032Z,99710.53
2024-03-12T09:17:10.736Z,99717.06
2024-03-12T09:20:12.592Z,99724.25
2024-03-12T09:23:14.779Z,99720.44
2024-03-12T09:26:16.568Z,99726.44
2024-03-12T09:29:18.283Z,99728.13
2024-03-12T09:32:20.382Z,99730.25
2024-03-12T09:35:21.983Z,99739.34
2024-03-12T09:38:23.750Z,99738.75
2024-03-12T09:41:29.829Z,99747.31
2024-03-12T09:44:31.465Z,99748.75
2024-03-12T09:47:34.016Z,99742.06
2024-03-12T09:50:36.889Z,99761.63
2024-03-12T09:53:38.737Z,99761.13
2024-03-12T09:56:41.413Z,99759.94
2024-03-12T09:59:43.205Z,99762.41
2024-03-12T10:02:47.680Z,99759.31
2024-03-12T10:05:49.330Z,99759.03
2024-03-12T10:08:57.280Z,99760.69
2024-03-12T10:12:03.228Z,99761.88
2024-03-12T10:15:10.822Z,99762.69
2024-03-12T10:18:13.907Z,99763.88
2024-03-12T10:21:23.840Z,99764.09
2024-03-12T10:24:30.036Z,99764.72
2024-03-12T10:27:31.768Z,99752.53
2024-03-12T10:30:33.505Z,99755.00
2024-03-12T10:33:37.842Z,99765.16
2024-03-12T10:36:43.445Z,99770.69
2024-03-12T10:39:45.419Z,99775.38
2024-03-12T10:42:58.816Z,99782.22
2024-03-12T10:46:01.046Z,99775.97
2024-03-12T10:49:03.564Z,99770.84
2024-03-12T10:52:06.200Z,99778.03
2024-03-12T10:55:10.793Z,99781.09
2024-03-12T10:58:15.438Z,99787.50
2024-03-12T11:01:20.901Z,99782.22
2024-03-12T11:04:24.277Z,99781.41
2024-03-12T11:07:28.703Z,99779.72
2024-03-12T11:10:34.240Z,99783.53
2024-03-12T11:13:36.503Z,99776.00
2024-03-12T11:16:41.687Z,99785.31
2024-03-12T11:19:43.323Z,99789.47
2024-03-12T11:22:45.800Z,99788.25
2024-03-12T11:25:50.594Z,99792.72
2024-03-12T11:28:52.783Z,99788.97
2024-03-12T11:31:54.513Z,99784.69
2024-03-12T11:34:57.680Z,99793.16
2024-03-12T11:37:59.559Z,99786.09
2024-03-12T11:41:03.935Z,99789.66
2024-03-12T11:44:05.562Z,99779.84
2024-03-12T11:47:08.076Z,99782.69
2024-03-12T11:50:35.898Z,99789.16
2024-03-12T11:53:39.403Z,99793.38
2024-03-12T11:56:55.637Z,99792.91
2024-03-12T11:59:58.661Z,99791.06
2024-03-12T12:03:01.438Z,99794.28
2024-03-12T12:06:04.076Z,99789.25
2024-03-12T12:09:10.538Z,99785.47
2024-03-12T12:12:15.332Z,99798.34
2024-03-12T12:15:17.429Z,99796.16
2024-03-12T12:18:19.438Z,99792.09
2024-03-12T12:21:22.942Z,99789.06
2024-03-12T12:24:26.398Z,99788.00
2024-03-12T12:27:28.732Z,99794.66
2024-03-12T12:30:31.441Z,99795.84
2024-03-12T12:33:34.864Z,99799.31
2024-03-12T12:36:41.499Z,99797.88
2024-03-12T12:39:53.066Z,99806.78
2024-03-12T12:42:56.628Z,99806.13
2024-03-12T12:45:58.667Z,99803.28
2024-03-12T12:49:00.784Z,99805.38
2024-03-12T12:52:05.121Z,99813.53
2024-03-12T12:55:11.123Z,99809.31
2024-03-12T12:58:13.013Z,99803.94
2024-03-12T13:01:17.141Z,99807.50
2024-03-12T13:04:29.015Z,99807.66
2024-03-12T13:07:34.253Z,99810.97
2024-03-12T13:10:37.216Z,99806.16
2024-03-12T13:13:42.020Z,99808.19
2024-03-12T13:16:44.121Z,99804.66
2024-03-12T13:19:46.086Z,99805.78
2024-03-12T13:22:49.611Z,99798.38
2024-03-12T13:25:51.315Z,99801.41
2024-03-12T13:28:56.625Z,99806.06
2024-03-12T13:31:58.350Z,99813.44
2024-03-12T13:35:00.027Z,99806.72
2024-03-12T13:38:01.641Z,99803.59
2024-03-12T13:41:03.730Z,99811.72
2024-03-12T13:44:05.578Z,99805.47
2024-03-12T13:47:07.382Z,99801.44
2024-03-12T13:50:09.477Z,99800.44
2024-03-12T13:53:11.518Z,99811.09
2024-03-12T13:56:15.944Z,99802.00
2024-03-12T13:59:18.928Z,99807.78
2024-03-12T14:02:24.326Z,99807.25
2024-03-12T14:05:27.797Z,99801.28
2024-03-12T14:08:31.023Z,99803.44
2024-03-12T14:11:33.544Z,99810.91
2024-03-12T14:14:35.250Z,99805.38
2024-03-12T14:17:37.115Z,99813.38
2024-03-12T14:20:39.241Z,99815.88
2024-03-12T14:23:40.955Z,99811.72
2024-03-12T14:26:42.564Z,99814.34
2024-03-12T14:29:47.580Z,99810.41
2024-03-12T14:32:49.231Z,99811.41
2024-03-12T14:35:50.875Z,99813.88
2024-03-12T14:38:54.910Z,99806.44
2024-03-12T14:41:57.139Z,99810.59
2024-03-12T14:44:58.792Z,99805.63
2024-03-12T14:48:00.473Z,99813.56
2024-03-12T14:51:02.498Z,99804.16
2024-03-12T14:54:04.323Z,99810.59
2024-03-12T14:57:07.113Z,99815.31
2024-03-12T15:00:11.152Z,99816.19
2024-03-12T15:03:13.830Z,99820.75
2024-03-12T15:06:16.011Z,99819.25
2024-03-12T15:09:18.203Z,99824.00
2024-03-12T15:12:21.156Z,99825.16
2024-03-12T15:15:23.475Z,99823.25
2024-03-12T15:18:28.997Z,99817.31
2024-03-12T15:21:31.490Z,99826.34
2024-03-12T15:24:36.024Z,99831.16
2024-03-12T15:27:43.363Z,99825.88
2024-03-12T15:30:45.389Z,99821.31
2024-03-12T15:33:47.245Z,99826.56
2024-03-12T15:36:50.996Z,99820.91
2024-03-12T15:39:52.931Z,99829.06
2024-03-12T15:42:54.689Z,99832.03
2024-03-12T15:45:59.584Z,99833.81
2024-03-12T15:49:01.804Z,99830.50
2024-03-12T15:52:05.959Z,99835.91
2024-03-12T15:55:09.414Z,99843.00
2024-03-12T15:58:12.235Z,99848.44
2024-03-12T16:01:16.090Z,99840.69
2024-03-12T16:04:19.494Z,99856.38
2024-03-12T16:07:21.282Z,99857.63
2024-03-12T16:10:23.092Z,99851.38
2024-03-12T16:13:24.876Z,99852.50
2024-03-12T16:16:26.839Z,99846.41
2024-03-12T16:19:31.308Z,99863.06
2024-03-12T16:22:33.233Z,99856.28
2024-03-12T16:25:35.074Z,99860.22
2024-03-12T16:28:36.966Z,99862.16
2024-03-12T16:31:38.706Z,99861.16
2024-03-12T16:34:40.355Z,99863.66
2024-03-12T16:37:44.181Z,99863.13
2024-03-12T16:40:47.129Z,99867.44
2024-03-12T16:43:49.069Z,99863.44
2024-03-12T16:46:51.087Z,99860.25
2024-03-12T16:49:54.361Z,99874.03
2024-03-12T16:52:56.058Z,99853.41
2024-03-12T16:55:58.883Z,99864.91
2024-03-12T16:59:01.471Z,99865.38
2024-03-12T17:02:09.202Z,99861.06
2024-03-12T17:05:23.062Z,99868.53
2024-03-12T17:08:25.240Z,99874.59
2024-03-12T17:11:29.270Z,99875.94
2024-03-12T17:14:35.823Z,99890.00
2024-03-12T17:17:40.228Z,99881.28
2024-03-12T17:20:42.134Z,99877.41
2024-03-12T17:23:43.953Z,99871.31
2024-03-12T17:26:45.779Z,99875.84
2024-03-12T17:29:48.934Z,99880.97
2024-03-12T17:32:52.892Z,99887.19
2024-03-12T17:35:56.213Z,99898.75
2024-03-12T17:39:00.824Z,99899.16
2024-03-12T17:42:02.805Z,99902.66
2024-03-12T17:45:07.566Z,99894.44
2024-03-12T17:48:13.076Z,99899.56
2024-03-12T17:51:15.072Z,99907.47
2024-03-12T17:54:17.249Z,99902.78
2024-03-12T17:57:20.255Z,99910.41
2024-03-12T18:00:22.547Z,99920.25
2024-03-12T18:03:24.840Z,99917.38
2024-03-12T18:06:29.303Z,99918.06
2024-03-12T18:09:33.381Z,99922.81
2024-03-12T18:12:35.347Z,99931.16
2024-03-12T18:15:37.114Z,99926.91
2024-03-12T18:18:39.533Z,99942.72
2024-03-12T18:21:41.317Z,99931.34
2024-03-12T18:24:43.318Z,99932.84
2024-03-12T18:27:46.637Z,99942.13
2024-03-12T18:30:48.468Z,99947.41
2024-03-12T18:33:50.873Z,99942.13
2024-03-12T18:36:54.768Z,99942.97
2024-03-12T18:39:56.986Z,99952.53
2024-03-12T18:42:58.776Z,99947.13
2024-03-12T18:46:00.970Z,99954.88
2024-03-12T18:49:02.973Z,99945.44
2024-03-12T18:52:05.157Z,99953.75
2024-03-12T18:55:12.414Z,99953.75
2024-03-12T18:58:15.131Z,99956.09
2024-03-12T19:01:18.248Z,99955.09
2024-03-12T19:04:26.842Z,99950.41
2024-03-12T19:07:29.663Z,99954.16
2024-03-12T19:10:31.915Z,99957.75
2024-03-12T19:13:34.121Z,99954.56
2024-03-12T19:16:37.144Z,99948.47
2024-03-12T19:19:39.829Z,99953.22
2024-03-12T19:22:43.281Z,99950.56
2024-03-12T19:25:44.970Z,99941.97
2024-03-12T19:28:47.042Z,99948.06
2024-03-12T19:31:50.614Z,99941.44
2024-03-12T19:34:52.676Z,99943.69
2024-03-12T19:37:55.166Z,99948.66
2024-03-12T19:40:58.408Z,99948.13
2024-03-12T19:44:00.267Z,99943.00
2024-03-12T19:47:03.974Z,99948.81
2024-03-12T19:50:07.312Z,99948.00
2024-03-12T19:53:10.379Z,99942.03
2024-03-12T19:56:13.317Z,99949.22
2024-03-12T19:59:15.865Z,99955.34
2024-03-12T20:02:17.563Z,99957.13
2024-03-12T20:05:22.498Z,99961.59
2024-03-12T20:08:24.208Z,99960.63
2024-03-12T20:11:25.988Z,99964.75
2024-03-12T20:14:30.183Z,99964.34
2024-03-12T20:17:32.458Z,99959.19
2024-03-12T20:20:34.100Z,99960.88
2024-03-12T20:23:37.761Z,99952.28
2024-03-12T20:26:40.123Z,99959.59
2024-03-12T20:29:41.780Z,99965.69
2024-03-12T20:32:43.577Z,99965.97
2024-03-12T20:35:46.241Z,99967.66
2024-03-12T20:38:47.869Z,99967.50
2024-03-12T20:41:49.598Z,99968.31
2024-03-12T20:44:51.209Z,99961.41
2024-03-12T20:47:52.896Z,99965.16
2024-03-12T20:50:54.680Z,99959.34
2024-03-12T20:53:56.886Z,99954.53
2024-03-12T20:56:58.802Z,99965.94
2024-03-12T21:00:01.362Z,99956.41
2024-03-12T21:03:05.192Z,99961.44
2024-03-12T21:06:08.101Z,99953.41
2024-03-12T21:09:13.033Z,99954.41
2024-03-12T21:12:14.650Z,99963.09
2024-03-12T21:15:17.288Z,99961.59
2024-03-12T21:18:22.583Z,99961.56
2024-03-12T21:21:24.220Z,99974.41
2024-03-12T21:24:31.799Z,99966.94
2024-03-12T21:27:33.678Z,99967.47
2024-03-12T21:30:37.323Z,99970.38
2024-03-12T21:33:39.981Z,99969.44
2024-03-12T21:36:41.796Z,99973.75
2024-03-12T21:39:45.008Z,99970.31
2024-03-12T21:42:47.652Z,99975.53
2024-03-12T21:45:50.280Z,99963.66
2024-03-12T21:48:51.951Z,99972.78
2024-03-12T21:51:54.644Z,99974.59
2024-03-12T21:54:56.426Z,99975.28
2024-03-12T21:57:58.418Z,99974.75
2024-03-12T22:01:00.105Z,99973.63
2024-03-12T22:07:06.145Z,99986.09
2024-03-12T22:10:09.271Z,99978.19
2024-03-12T22:13:17.301Z,99979.56
2024-03-12T22:16:25.884Z,99982.50
2024-03-12T22:19:27.477Z,99981.97
2024-03-12T22:22:33.964Z,99981.69
2024-03-12T22:25:36.692Z,99980.56
2024-03-12T22:28:39.475Z,99986.09
2024-03-12T22:31:44.355Z,99978.03
2024-03-12T22:34:46.115Z,99985.53
2024-03-12T22:37:49.485Z,99978.63
2024-03-12T22:40:54.709Z,99976.81
2024-03-12T22:43:57.102Z,99977.09
2024-03-12T22:47:00.263Z,99971.97
2024-03-12T22:50:03.091Z,99983.22
2024-03-12T22:53:06.974Z,99984.97
2024-03-12T22:56:14.910Z,99980.28
2024-03-12T22:59:17.581Z,99992.34
2024-03-12T23:02:20.469Z,99977.81
2024-03-12T23:05:22.707Z,99980.56
2024-03-12T23:08:29.911Z,99981.78
2024-03-12T23:11:32.291Z,99981.66
2024-03-12T23:14:35.680Z,99989.69
2024-03-12T23:17:38.133Z,99982.78
2024-03-12T23:20:41.894Z,99987.59
2024-03-12T23:23:45.753Z,99987.59
2024-03-12T23:26:48.192Z,99999.38
2024-03-12T23:29:51.451Z,99991.75
2024-03-12T23:32:57.438Z,99995.78
2024-03-12T23:35:59.164Z,99998.25
2024-03-12T23:39:00.849Z,99996.88
2024-03-12T23:42:02.544Z,99998.00
2024-03-12T23:45:04.714Z,100003.94
2024-03-12T23:48:07.088Z,99998.25
2024-03-12T23:51:10.564Z,100000.06
2024-03-12T23:54:12.744Z,100011.69
2024-03-12T23:57:17.018Z,100010.97
